Kathy C — 2CTI7 — position and weather

sailwx.info

Track history (hours):
 
Tides and Currents Weather Stations Pressure Air Temp Water Temp Dewpoint Dewpoint Depression Visibility Wind Speed Wind Dir Waves Ship Positions

Kathy C

Last reported at 2015-Mar-26 20:10 UTC. Time now 2015-Mar-27 06:56 UTC.
Position N 39°01' W 009°50'.

Length 106 m; draft 5 m.

Type: Cargo ship. MMSI: 235075591.

Date/timePositionNaut miles runAvg speedWind from/ knotsBaromVisibWave heightAir tempDewpointWater temp
2015-Mar-26 20:10N 39°01' W 009°50'910.8
2015-Mar-26 19:18N 38°51' W 009°50'810.7
2015-Mar-26 18:33N 38°43' W 009°50'1010.2
2015-Mar-26 17:33N 38°34' W 009°46'1110.4
2015-Mar-26 16:32N 38°24' W 009°40'9 9.2
2015-Mar-26 15:33N 38°15' W 009°37'10 8.4
2015-Mar-26 14:19N 38°05' W 009°36'6 8.3
2015-Mar-26 13:32N 37°59' W 009°35'10 8.1
2015-Mar-26 12:16N 37°48' W 009°34'35 6.9
2015-Mar-26 07:11N 37°18' W 009°56'  
2015-Mar-21 04:12N 28°23' W 013°49'15 9.3
2015-Mar-21 02:33N 28°09' W 013°53'1110.8
2015-Mar-21 01:32N 28°05' W 014°05'2210.8
2015-Mar-20 23:32N 27°58' W 014°28'1010.4
2015-Mar-20 22:34N 27°59' W 014°40'1110.7
2015-Mar-20 21:34N 28°01' W 014°52'1110.6
2015-Mar-20 20:33N 28°03' W 015°03'1111.2
2015-Mar-20 19:33N 28°05' W 015°16'4 4.5
2015-Mar-20 18:33N 28°08' W 015°20'4 3.7
2015-Mar-20 17:33N 28°07' W 015°24'2 1.6
2015-Mar-20 16:24N 28°09' W 015°25'0 0.0
2015-Mar-20 15:30N 28°09' W 015°25'0 0.0
2015-Mar-20 14:30N 28°09' W 015°25'0 0.0
2015-Mar-20 13:30N 28°09' W 015°25'0 0.0
2015-Mar-20 12:33N 28°09' W 015°25'0 0.0
2015-Mar-20 11:33N 28°09' W 015°25'0 0.0
2015-Mar-20 10:33N 28°09' W 015°25'0 0.0
2015-Mar-20 09:33N 28°09' W 015°25'0 0.0
2015-Mar-20 08:33N 28°09' W 015°25'0 0.0
2015-Mar-20 07:24N 28°09' W 015°25'0 0.0
2015-Mar-20 06:33N 28°09' W 015°25'0 0.0
2015-Mar-20 05:24N 28°09' W 015°25'0 0.0
2015-Mar-20 04:27N 28°09' W 015°25'0 0.0
2015-Mar-20 03:27N 28°09' W 015°25'0 0.0
2015-Mar-20 02:24N 28°09' W 015°25'0 0.0
2015-Mar-20 01:30N 28°09' W 015°25'0 0.0
2015-Mar-20 00:30N 28°09' W 015°25'0 0.2
2015-Mar-19 23:33N 28°09' W 015°25'4 4.0
2015-Mar-19 22:33N 28°12' W 015°23'1212.0
2015-Mar-19 21:33N 28°15' W 015°36'1212.2
2015-Mar-19 20:33N 28°18' W 015°49'1212.1
2015-Mar-19 19:33N 28°22' W 016°02'1212.1
2015-Mar-19 18:33N 28°29' W 016°14'0 0.3
2015-Mar-19 17:19N 28°29' W 016°13'0 0.0
2015-Mar-19 16:31N 28°29' W 016°13'0 0.0
2015-Mar-19 14:31N 28°29' W 016°13'0 0.0
2015-Mar-19 13:31N 28°29' W 016°13'0 0.0
2015-Mar-19 12:22N 28°29' W 016°13'0 0.0
2015-Mar-19 09:07N 28°29' W 016°13'0 0.0
2015-Mar-19 08:28N 28°29' W 016°13'0 0.0
2015-Mar-19 07:25N 28°29' W 016°13'0 0.0
2015-Mar-19 05:31N 28°29' W 016°13'0 0.0
2015-Mar-19 04:31N 28°29' W 016°13'0 0.0
2015-Mar-19 03:31N 28°29' W 016°13'0 0.0
2015-Mar-19 02:28N 28°29' W 016°13'0 0.0
2015-Mar-19 01:16N 28°29' W 016°13'0 0.0
2015-Mar-19 00:31N 28°29' W 016°13'0 0.0
2015-Mar-18 23:22N 28°29' W 016°13'0 0.0
2015-Mar-18 22:22N 28°29' W 016°13'0 0.0
2015-Mar-18 21:25N 28°29' W 016°13'0 0.0
2015-Mar-18 20:25N 28°29' W 016°13'0 0.0
2015-Mar-18 19:32N 28°29' W 016°13'4 4.1
2015-Mar-18 18:27N 28°27' W 016°09'1011.4
2015-Mar-18 17:33N 28°27' W 015°57'1111.4
2015-Mar-18 16:33N 28°35' W 015°48'1111.2
2015-Mar-18 15:33N 28°42' W 015°38'1111.4
2015-Mar-18 14:33N 28°48' W 015°28'1211.7
2015-Mar-18 13:33N 28°56' W 015°17'  
Track history (hours):
 
Tides and Currents Weather Stations Pressure Air Temp Water Temp Dewpoint Dewpoint Depression Visibility Wind Speed Wind Dir Waves Ship Positions

Kathy C

Last reported at 2015-Mar-26 20:10 UTC. Time now 2015-Mar-27 06:56 UTC.
Position N 39°01' W 009°50'.

Length 106 m; draft 5 m.

Type: Cargo ship. MMSI: 235075591.

Date/timePositionNaut miles runAvg speedWind from/ knotsBaromVisibWave heightAir tempDewpointWater temp
2015-Mar-26 20:10N 39°01' W 009°50'910.8
2015-Mar-26 19:18N 38°51' W 009°50'810.7
2015-Mar-26 18:33N 38°43' W 009°50'1010.2
2015-Mar-26 17:33N 38°34' W 009°46'1110.4
2015-Mar-26 16:32N 38°24' W 009°40'9 9.2
2015-Mar-26 15:33N 38°15' W 009°37'10 8.4
2015-Mar-26 14:19N 38°05' W 009°36'6 8.3
2015-Mar-26 13:32N 37°59' W 009°35'10 8.1
2015-Mar-26 12:16N 37°48' W 009°34'35 6.9
2015-Mar-26 07:11N 37°18' W 009°56'  
2015-Mar-21 04:12N 28°23' W 013°49'15 9.3
2015-Mar-21 02:33N 28°09' W 013°53'1110.8
2015-Mar-21 01:32N 28°05' W 014°05'2210.8
2015-Mar-20 23:32N 27°58' W 014°28'1010.4
2015-Mar-20 22:34N 27°59' W 014°40'1110.7
2015-Mar-20 21:34N 28°01' W 014°52'1110.6
2015-Mar-20 20:33N 28°03' W 015°03'1111.2
2015-Mar-20 19:33N 28°05' W 015°16'4 4.5
2015-Mar-20 18:33N 28°08' W 015°20'4 3.7
2015-Mar-20 17:33N 28°07' W 015°24'2 1.6
2015-Mar-20 16:24N 28°09' W 015°25'0 0.0
2015-Mar-20 15:30N 28°09' W 015°25'0 0.0
2015-Mar-20 14:30N 28°09' W 015°25'0 0.0
2015-Mar-20 13:30N 28°09' W 015°25'0 0.0
2015-Mar-20 12:33N 28°09' W 015°25'0 0.0
2015-Mar-20 11:33N 28°09' W 015°25'0 0.0
2015-Mar-20 10:33N 28°09' W 015°25'0 0.0
2015-Mar-20 09:33N 28°09' W 015°25'0 0.0
2015-Mar-20 08:33N 28°09' W 015°25'0 0.0
2015-Mar-20 07:24N 28°09' W 015°25'0 0.0
2015-Mar-20 06:33N 28°09' W 015°25'0 0.0
2015-Mar-20 05:24N 28°09' W 015°25'0 0.0
2015-Mar-20 04:27N 28°09' W 015°25'0 0.0
2015-Mar-20 03:27N 28°09' W 015°25'0 0.0
2015-Mar-20 02:24N 28°09' W 015°25'0 0.0
2015-Mar-20 01:30N 28°09' W 015°25'0 0.0
2015-Mar-20 00:30N 28°09' W 015°25'0 0.2
2015-Mar-19 23:33N 28°09' W 015°25'4 4.0
2015-Mar-19 22:33N 28°12' W 015°23'1212.0
2015-Mar-19 21:33N 28°15' W 015°36'1212.2
2015-Mar-19 20:33N 28°18' W 015°49'1212.1
2015-Mar-19 19:33N 28°22' W 016°02'1212.1
2015-Mar-19 18:33N 28°29' W 016°14'0 0.3
2015-Mar-19 17:19N 28°29' W 016°13'0 0.0
2015-Mar-19 16:31N 28°29' W 016°13'0 0.0
2015-Mar-19 14:31N 28°29' W 016°13'0 0.0
2015-Mar-19 13:31N 28°29' W 016°13'0 0.0
2015-Mar-19 12:22N 28°29' W 016°13'0 0.0
2015-Mar-19 09:07N 28°29' W 016°13'0 0.0
2015-Mar-19 08:28N 28°29' W 016°13'0 0.0
2015-Mar-19 07:25N 28°29' W 016°13'0 0.0
2015-Mar-19 05:31N 28°29' W 016°13'0 0.0
2015-Mar-19 04:31N 28°29' W 016°13'0 0.0
2015-Mar-19 03:31N 28°29' W 016°13'0 0.0
2015-Mar-19 02:28N 28°29' W 016°13'0 0.0
2015-Mar-19 01:16N 28°29' W 016°13'0 0.0
2015-Mar-19 00:31N 28°29' W 016°13'0 0.0
2015-Mar-18 23:22N 28°29' W 016°13'0 0.0
2015-Mar-18 22:22N 28°29' W 016°13'0 0.0
2015-Mar-18 21:25N 28°29' W 016°13'0 0.0
2015-Mar-18 20:25N 28°29' W 016°13'0 0.0
2015-Mar-18 19:32N 28°29' W 016°13'4 4.1
2015-Mar-18 18:27N 28°27' W 016°09'1011.4
2015-Mar-18 17:33N 28°27' W 015°57'1111.4
2015-Mar-18 16:33N 28°35' W 015°48'1111.2
2015-Mar-18 15:33N 28°42' W 015°38'1111.4
2015-Mar-18 14:33N 28°48' W 015°28'1211.7
2015-Mar-18 13:33N 28°56' W 015°17'  

Dump ship's entire track history